Terminal Aerodrome Forecast
Issued by NWS

Home | Current Version | Previous Version | Text Only | Print | Product List | Glossary On
Versions: 1 2 3 4 5 6 7 8 9 10 11 12 13 14
137
FTUS44 KLIX 252328
TAFMSY
TAF
KMSY 252328Z 2600/2624 14010KT P6SM SCT025 SCT050
     FM261000 VRB03KT P6SM BKN040
      TEMPO 2610/2614 BKN020
     FM261400 15005KT P6SM BKN035
     FM261700 15009KT P6SM BKN060=

USA.gov is the U.S. government's official web portal to all federal, state and local government web resources and services.